Estación Meteorológica Peña el Pijo (Robertgarden) [ 02/02/23 21:01:23 CET ]

Fecha Hora Presion(HPa) Temp (°C) Humedad % Rocio (°C) Viento ( m/s) Direccion Lluvia 1Hora(mm) Lluvia 24H(mm) LLuvia Total(mm)
2012-Feb-01 01:01:17 1008.900 0.8 70 -4.1         153.32
2012-Feb-01 02:01:42 1008.200 0.8 70 -4.1         153.32
2012-Feb-01 03:10:04 1007.700 3.1 63 -3.3         153.32
2012-Feb-01 04:01:17 1007.600 4.1 60 -3.0         153.32
2012-Feb-01 05:01:15 1007.200 3.3 60 -3.7         153.32
2012-Feb-01 06:01:14 1007.200 2.1 61 -4.6         153.32
2012-Feb-01 07:01:13 1007.200 1.5 64 -4.6         153.32
2012-Feb-01 08:01:13 1006.900 0.4 67 -5.0         153.32
2012-Feb-01 09:01:13 1007.100 -0.4 71 -5.0         153.32
2012-Feb-01 10:01:17 1006.700 4.6 64 -1.7         153.32
2012-Feb-01 11:01:16 1006.200 8.7 52 -0.7         153.32
2012-Feb-01 12:01:12 1005.500 11.8 40 -1.4         153.32
2012-Feb-01 13:01:11 1004.900 13.4 35 -1.9         153.32
2012-Feb-01 14:01:12 1003.600 14.6 31 -2.4         153.32
2012-Feb-01 15:01:15 1002.700 14.2 31 -2.7         153.32
2012-Feb-01 16:01:14 1002.100 13.6 29 -4.2         153.32
2012-Feb-01 17:01:14 1001.600 10.6 30 -6.3         153.32
2012-Feb-01 18:01:18 1001.800 8.5 35 -6.2         153.32
2012-Feb-01 19:01:19 1001.700 5.9 41 -6.4         153.32
2012-Feb-01 20:01:14 1001.700 2.7 51 -6.4         153.32
2012-Feb-01 21:01:15 1001.600 1.9 60 -5.0         153.32
2012-Feb-01 22:01:16 1001.500 3.4 62 -3.2         153.32
2012-Feb-01 23:01:13 1001.300 4.3 63 -2.2         153.32

Temperatura Máxima:14°    Temperatura Mínima:
Presión Máxima:1008.900 Hpa    Presión Mínima:1001.300 Hpa


Volver